createdAt,value
2017-11-26T00:01:15.063Z,3.80
2017-11-26T00:03:43.559Z,3.70
2017-11-26T00:06:11.934Z,3.80
2017-11-26T00:08:40.299Z,3.80
2017-11-26T00:11:08.751Z,3.70
2017-11-26T00:13:37.118Z,3.70
2017-11-26T00:16:05.504Z,3.70
2017-11-26T00:18:34.060Z,3.70
2017-11-26T00:21:03.208Z,3.80
2017-11-26T00:23:31.587Z,3.80
2017-11-26T00:26:00.187Z,3.70
2017-11-26T00:28:28.610Z,3.80
2017-11-26T00:30:56.982Z,3.70
2017-11-26T00:33:25.922Z,3.70
2017-11-26T00:35:54.355Z,3.80
2017-11-26T00:38:22.740Z,3.80
2017-11-26T00:40:51.238Z,3.70
2017-11-26T00:43:19.631Z,3.60
2017-11-26T00:45:48.012Z,3.60
2017-11-26T00:48:16.506Z,3.50
2017-11-26T00:50:44.874Z,3.40
2017-11-26T00:53:13.238Z,3.40
2017-11-26T00:55:41.651Z,3.40
2017-11-26T00:58:10.067Z,3.40
2017-11-26T01:00:38.452Z,3.30
2017-11-26T01:03:07.194Z,3.20
2017-11-26T01:05:35.559Z,3.20
2017-11-26T01:08:03.944Z,3.10
2017-11-26T01:10:32.465Z,3.00
2017-11-26T01:13:01.594Z,2.90
2017-11-26T01:15:29.966Z,2.90
2017-11-26T01:17:58.667Z,3.00
2017-11-26T01:20:27.039Z,2.90
2017-11-26T01:22:55.410Z,2.80
2017-11-26T01:25:23.906Z,2.80
2017-11-26T01:27:52.289Z,2.70
2017-11-26T01:30:20.656Z,2.70
2017-11-26T01:32:49.078Z,2.60
2017-11-26T01:35:18.233Z,2.50
2017-11-26T01:37:46.616Z,2.50
2017-11-26T01:40:15.111Z,2.60
2017-11-26T01:42:43.487Z,2.50
2017-11-26T01:45:11.864Z,2.50
2017-11-26T01:47:40.422Z,2.40
2017-11-26T01:50:08.804Z,2.30
2017-11-26T01:52:37.184Z,2.20
2017-11-26T01:55:05.686Z,2.20
2017-11-26T01:57:34.060Z,2.10
2017-11-26T02:00:02.457Z,2.10
2017-11-26T02:02:30.977Z,2.20
2017-11-26T02:04:59.356Z,2.10
2017-11-26T02:07:27.792Z,2.10
2017-11-26T02:09:57.108Z,2.00
2017-11-26T02:12:25.486Z,1.90
2017-11-26T02:14:53.890Z,1.90
2017-11-26T02:17:22.507Z,1.90
2017-11-26T02:19:50.886Z,1.90
2017-11-26T02:22:19.328Z,1.90
2017-11-26T02:24:48.154Z,1.90
2017-11-26T02:27:17.043Z,1.80
2017-11-26T02:29:45.869Z,1.80
2017-11-26T02:32:32.951Z,1.80
2017-11-26T02:35:19.288Z,1.70
2017-11-26T02:37:48.163Z,1.60
2017-11-26T02:40:17.031Z,1.60
2017-11-26T02:42:45.860Z,1.60
2017-11-26T02:45:14.350Z,1.60
2017-11-26T02:47:44.066Z,1.60
2017-11-26T02:50:13.774Z,1.60
2017-11-26T02:52:42.941Z,1.70
2017-11-26T02:55:11.333Z,1.70
2017-11-26T02:57:39.924Z,1.80
2017-11-26T03:00:09.069Z,1.80
2017-11-26T03:02:37.439Z,1.80
2017-11-26T03:05:05.841Z,1.80
2017-11-26T03:07:34.234Z,1.80
2017-11-26T03:10:02.622Z,1.80
2017-11-26T03:12:31.269Z,1.90
2017-11-26T03:14:59.665Z,1.90
2017-11-26T03:17:28.038Z,1.90
2017-11-26T03:19:56.459Z,1.90
2017-11-26T03:22:25.703Z,1.90
2017-11-26T03:24:54.080Z,1.90
2017-11-26T03:27:22.517Z,1.90
2017-11-26T03:29:51.689Z,2.00
2017-11-26T03:32:20.075Z,2.00
2017-11-26T03:34:48.642Z,2.00
2017-11-26T03:37:17.020Z,2.00
2017-11-26T03:39:45.431Z,2.00
2017-11-26T03:42:14.643Z,2.00
2017-11-26T03:44:43.778Z,2.10
2017-11-26T03:47:12.161Z,2.00
2017-11-26T03:49:40.663Z,2.00
2017-11-26T03:52:09.104Z,2.00
2017-11-26T03:54:37.486Z,2.10
2017-11-26T03:57:05.898Z,2.10
2017-11-26T03:59:34.271Z,2.10
2017-11-26T04:02:02.647Z,2.10
2017-11-26T04:04:31.073Z,2.10
2017-11-26T04:07:00.229Z,2.20
2017-11-26T04:09:28.603Z,2.20
2017-11-26T04:11:57.377Z,2.20
2017-11-26T04:14:25.756Z,2.20
2017-11-26T04:16:54.128Z,2.20
2017-11-26T04:19:22.555Z,2.20
2017-11-26T04:21:51.699Z,2.20
2017-11-26T04:24:20.112Z,2.20
2017-11-26T04:26:48.522Z,2.30
2017-11-26T04:29:17.661Z,2.30
2017-11-26T04:31:46.037Z,2.30
2017-11-26T04:34:14.549Z,2.40
2017-11-26T04:36:42.934Z,2.30
2017-11-26T04:39:11.320Z,2.40
2017-11-26T04:41:39.731Z,2.30
2017-11-26T04:44:08.103Z,2.40
2017-11-26T04:46:36.480Z,2.20
2017-11-26T04:49:05.186Z,2.20
2017-11-26T04:51:33.581Z,2.10
2017-11-26T04:54:02.777Z,1.90
2017-11-26T04:56:31.245Z,1.90
2017-11-26T04:58:59.625Z,1.90
2017-11-26T05:01:28.004Z,1.90
2017-11-26T05:03:56.529Z,1.90
2017-11-26T05:06:24.908Z,1.90
2017-11-26T05:08:53.275Z,2.00
2017-11-26T05:11:21.943Z,1.90
2017-11-26T05:13:50.323Z,1.90
2017-11-26T05:16:18.695Z,2.00
2017-11-26T05:18:47.472Z,2.10
2017-11-26T05:21:15.853Z,2.10
2017-11-26T05:23:44.238Z,2.00
2017-11-26T05:26:12.734Z,1.90
2017-11-26T05:28:41.094Z,2.00
2017-11-26T05:31:09.460Z,1.90
2017-11-26T05:33:37.871Z,1.80
2017-11-26T05:36:07.035Z,1.70
2017-11-26T05:38:35.415Z,1.70
2017-11-26T05:41:03.889Z,1.70
2017-11-26T05:43:32.325Z,1.60
2017-11-26T05:46:00.760Z,1.50
2017-11-26T05:48:29.330Z,1.50
2017-11-26T05:50:57.819Z,1.50
2017-11-26T05:53:29.509Z,1.40
2017-11-26T05:55:58.183Z,1.40
2017-11-26T05:58:26.551Z,1.30
2017-11-26T06:00:55.943Z,1.30
2017-11-26T06:03:24.331Z,1.20
2017-11-26T06:05:52.695Z,1.30
2017-11-26T06:08:21.897Z,1.20
2017-11-26T06:10:50.330Z,1.20
2017-11-26T06:13:19.680Z,1.10
2017-11-26T06:15:48.182Z,1.10
2017-11-26T06:18:16.565Z,1.10
2017-11-26T06:20:45.031Z,1.00
2017-11-26T06:23:14.444Z,1.00
2017-11-26T06:25:42.853Z,1.00
2017-11-26T06:28:12.091Z,0.90
2017-11-26T06:30:40.636Z,0.80
2017-11-26T06:33:09.851Z,0.90
2017-11-26T06:35:38.237Z,0.80
2017-11-26T06:38:06.894Z,0.80
2017-11-26T06:40:36.363Z,0.90
2017-11-26T06:43:04.744Z,0.80
2017-11-26T06:45:33.387Z,0.90
2017-11-26T06:48:01.759Z,0.90
2017-11-26T06:50:30.123Z,0.90
2017-11-26T06:52:59.686Z,1.00
2017-11-26T06:55:28.163Z,1.00
2017-11-26T06:57:56.585Z,1.00
2017-11-26T07:00:25.848Z,1.10
2017-11-26T07:02:54.246Z,1.10
2017-11-26T07:05:22.634Z,1.20
2017-11-26T07:07:51.132Z,1.20
2017-11-26T07:10:20.275Z,1.20
2017-11-26T07:12:48.653Z,1.20
2017-11-26T07:15:17.275Z,1.20
2017-11-26T07:17:45.636Z,1.30
2017-11-26T07:20:14.030Z,1.30
2017-11-26T07:22:42.690Z,1.30
2017-11-26T07:25:11.047Z,1.30
2017-11-26T07:27:39.449Z,1.20
2017-11-26T07:30:08.011Z,1.20
2017-11-26T07:32:36.429Z,1.20
2017-11-26T07:35:04.838Z,1.20
2017-11-26T07:37:34.274Z,1.20
2017-11-26T07:40:02.698Z,1.20
2017-11-26T07:42:31.068Z,1.50
2017-11-26T07:44:59.632Z,1.90
2017-11-26T07:47:28.018Z,3.00
2017-11-26T07:49:56.382Z,4.30
2017-11-26T07:52:24.894Z,5.60
2017-11-26T07:54:53.360Z,6.20
2017-11-26T07:57:22.576Z,5.90
2017-11-26T07:59:51.163Z,5.90
2017-11-26T08:02:20.298Z,5.70
2017-11-26T08:04:48.883Z,5.70
2017-11-26T08:07:17.337Z,5.30
2017-11-26T08:09:46.577Z,4.20
2017-11-26T08:12:14.941Z,4.10
2017-11-26T08:14:43.835Z,3.70
2017-11-26T08:17:12.259Z,3.20
2017-11-26T08:19:40.686Z,2.80
2017-11-26T08:22:09.432Z,2.50
2017-11-26T08:24:37.808Z,2.30
2017-11-26T08:27:06.173Z,2.20
2017-11-26T08:29:34.902Z,2.10
2017-11-26T08:32:03.296Z,2.10
2017-11-26T08:34:31.747Z,2.10
2017-11-26T08:37:01.225Z,2.10
2017-11-26T08:39:30.484Z,2.10
2017-11-26T08:41:58.859Z,2.10
2017-11-26T08:44:45.724Z,2.10
2017-11-26T08:47:14.352Z,2.20
2017-11-26T08:49:43.039Z,2.30
2017-11-26T08:52:11.404Z,2.40
2017-11-26T08:54:39.794Z,2.60
2017-11-26T08:57:08.479Z,2.70
2017-11-26T08:59:36.882Z,2.70
2017-11-26T09:02:05.246Z,2.80
2017-11-26T09:04:33.674Z,2.80
2017-11-26T09:07:06.771Z,2.90
2017-11-26T09:09:34.916Z,2.90
2017-11-26T09:12:03.349Z,3.00
2017-11-26T09:14:31.735Z,2.90
2017-11-26T09:17:00.296Z,2.90
2017-11-26T09:19:29.448Z,2.90
2017-11-26T09:21:57.828Z,2.80
2017-11-26T09:24:26.561Z,2.90
2017-11-26T09:26:54.928Z,2.90
2017-11-26T09:29:24.862Z,3.00
2017-11-26T09:31:53.362Z,2.90
2017-11-26T09:34:21.720Z,2.90
2017-11-26T09:36:50.084Z,2.90
2017-11-26T09:39:19.412Z,2.90
2017-11-26T09:41:47.835Z,2.90
2017-11-26T09:44:16.203Z,3.00
2017-11-26T09:46:44.862Z,3.10
2017-11-26T09:49:13.236Z,3.20
2017-11-26T09:51:41.602Z,3.30
2017-11-26T09:54:10.396Z,3.30
2017-11-26T09:56:38.790Z,3.40
2017-11-26T09:59:07.180Z,3.40
2017-11-26T10:01:35.597Z,3.70
2017-11-26T10:04:04.789Z,3.70
2017-11-26T10:06:33.264Z,3.70
2017-11-26T10:09:01.897Z,3.70
2017-11-26T10:11:30.276Z,3.70
2017-11-26T10:13:58.660Z,3.60
2017-11-26T10:16:27.475Z,3.50
2017-11-26T10:18:55.843Z,3.50
2017-11-26T10:21:24.330Z,3.50
2017-11-26T10:23:52.765Z,3.40
2017-11-26T10:26:21.165Z,3.40
2017-11-26T10:28:49.859Z,3.50
2017-11-26T10:31:18.330Z,3.50
2017-11-26T10:33:46.715Z,3.60
2017-11-26T10:36:15.478Z,3.60
2017-11-26T10:38:44.018Z,3.40
2017-11-26T10:41:12.409Z,3.30
2017-11-26T10:43:41.412Z,3.30
2017-11-26T10:46:11.082Z,3.10
2017-11-26T10:48:39.882Z,3.10
2017-11-26T10:51:10.697Z,3.20
2017-11-26T10:53:40.159Z,3.00
2017-11-26T10:56:08.832Z,3.00
2017-11-26T10:58:38.235Z,2.80
2017-11-26T11:01:08.061Z,3.10
2017-11-26T11:03:36.442Z,3.00
2017-11-26T11:06:05.195Z,3.10
2017-11-26T11:08:34.252Z,3.40
2017-11-26T11:11:02.762Z,4.50
2017-11-26T11:13:31.751Z,6.00
2017-11-26T11:16:00.418Z,7.50
2017-11-26T11:18:28.979Z,7.70
2017-11-26T11:20:57.479Z,7.70
2017-11-26T11:23:25.997Z,7.50
2017-11-26T11:25:55.204Z,6.40
2017-11-26T11:28:23.703Z,6.30
2017-11-26T11:30:52.148Z,5.90
2017-11-26T11:33:20.609Z,5.60
2017-11-26T11:35:49.216Z,4.70
2017-11-26T11:38:18.051Z,4.50
2017-11-26T11:40:46.883Z,4.10
2017-11-26T11:43:15.619Z,4.00
2017-11-26T11:45:44.451Z,3.90
2017-11-26T11:48:12.947Z,3.80
2017-11-26T11:50:41.365Z,3.60
2017-11-26T11:53:10.276Z,3.60
2017-11-26T11:55:39.239Z,3.60
2017-11-26T11:58:07.921Z,3.70
2017-11-26T12:00:37.574Z,3.50
2017-11-26T12:03:06.019Z,3.50
2017-11-26T12:05:34.401Z,3.60
2017-11-26T12:08:02.964Z,3.70
2017-11-26T12:10:32.145Z,3.70
2017-11-26T12:13:00.521Z,3.70
2017-11-26T12:15:29.084Z,3.60
2017-11-26T12:17:57.493Z,3.30
2017-11-26T12:20:26.657Z,3.40
2017-11-26T12:22:55.550Z,3.40
2017-11-26T12:25:26.130Z,3.30
2017-11-26T12:27:55.008Z,3.30
2017-11-26T12:30:23.958Z,3.30
2017-11-26T12:32:53.155Z,3.40
2017-11-26T12:35:22.137Z,3.40
2017-11-26T12:37:51.955Z,3.30
2017-11-26T12:40:21.865Z,3.30
2017-11-26T12:42:51.691Z,3.20
2017-11-26T12:45:21.519Z,3.30
2017-11-26T12:47:51.493Z,3.40
2017-11-26T12:50:21.564Z,3.60
2017-11-26T12:52:52.127Z,4.60
2017-11-26T12:55:21.945Z,4.60
2017-11-26T12:57:51.442Z,4.80
2017-11-26T13:00:21.251Z,5.00
2017-11-26T13:02:51.387Z,4.70
2017-11-26T13:05:21.346Z,4.40
2017-11-26T13:07:50.718Z,4.30
2017-11-26T13:10:21.519Z,4.10
2017-11-26T13:12:51.704Z,4.40
2017-11-26T13:15:20.526Z,4.40
2017-11-26T13:17:50.645Z,4.30
2017-11-26T13:20:20.622Z,4.40
2017-11-26T13:22:51.120Z,4.20
2017-11-26T13:25:21.280Z,4.10
2017-11-26T13:27:51.139Z,4.00
2017-11-26T13:30:20.343Z,4.00
2017-11-26T13:32:50.265Z,3.70
2017-11-26T13:35:19.458Z,3.70
2017-11-26T13:37:48.711Z,3.60
2017-11-26T13:40:20.289Z,3.50
2017-11-26T13:42:49.464Z,3.50
2017-11-26T13:45:18.059Z,3.30
2017-11-26T13:47:48.789Z,3.30
2017-11-26T13:50:17.390Z,3.30
2017-11-26T13:52:47.018Z,3.30
2017-11-26T13:55:15.648Z,3.30
2017-11-26T13:57:44.861Z,3.30
2017-11-26T14:00:14.260Z,3.30
2017-11-26T14:02:43.296Z,3.30
2017-11-26T14:05:12.247Z,3.40
2017-11-26T14:07:41.393Z,3.40
2017-11-26T14:10:10.592Z,3.50
2017-11-26T14:12:39.917Z,3.40
2017-11-26T14:15:09.588Z,3.30
2017-11-26T14:17:38.069Z,3.30
2017-11-26T14:20:06.873Z,3.20
2017-11-26T14:22:35.866Z,3.10
2017-11-26T14:25:05.619Z,3.00
2017-11-26T14:27:34.025Z,3.00
2017-11-26T14:30:05.349Z,3.00
2017-11-26T14:32:36.324Z,3.00
2017-11-26T14:35:06.508Z,2.90
2017-11-26T14:37:38.875Z,2.90
2017-11-26T14:40:10.670Z,2.90
2017-11-26T14:42:39.248Z,2.80
2017-11-26T14:45:07.705Z,2.90
2017-11-26T14:47:36.649Z,2.90
2017-11-26T14:50:05.822Z,2.80
2017-11-26T14:52:36.341Z,2.80
2017-11-26T14:55:05.950Z,2.80
2017-11-26T14:57:35.904Z,2.80
2017-11-26T15:00:05.801Z,2.70
2017-11-26T15:02:35.426Z,2.70
2017-11-26T15:05:05.371Z,2.60
2017-11-26T15:07:36.319Z,2.70
2017-11-26T15:10:06.713Z,2.60
2017-11-26T15:12:36.515Z,2.60
2017-11-26T15:15:06.743Z,2.40
2017-11-26T15:17:35.827Z,2.10
2017-11-26T15:20:04.771Z,2.10
2017-11-26T15:22:33.631Z,1.80
2017-11-26T15:25:03.165Z,1.50
2017-11-26T15:27:31.980Z,1.40
2017-11-26T15:30:01.136Z,1.40
2017-11-26T15:32:30.765Z,1.50
2017-11-26T15:34:59.667Z,1.50
2017-11-26T15:37:28.943Z,1.70
2017-11-26T15:39:57.829Z,1.70
2017-11-26T15:42:26.724Z,1.80
2017-11-26T15:44:55.236Z,1.80
2017-11-26T15:47:24.146Z,1.90
2017-11-26T15:49:52.821Z,1.90
2017-11-26T15:52:21.720Z,1.90
2017-11-26T15:54:50.608Z,2.00
2017-11-26T15:57:19.539Z,2.00
2017-11-26T15:59:48.745Z,2.00
2017-11-26T16:02:17.888Z,1.90
2017-11-26T16:04:47.052Z,1.90
2017-11-26T16:07:15.667Z,1.90
2017-11-26T16:09:44.071Z,1.90
2017-11-26T16:12:12.740Z,1.80
2017-11-26T16:14:41.427Z,1.60
2017-11-26T16:17:10.071Z,1.30
2017-11-26T16:19:38.874Z,1.20
2017-11-26T16:22:08.140Z,1.10
2017-11-26T16:24:37.459Z,1.00
2017-11-26T16:27:06.366Z,0.80
2017-11-26T16:29:35.585Z,0.80
2017-11-26T16:32:04.898Z,0.90
2017-11-26T16:34:34.638Z,0.80
2017-11-26T16:37:03.456Z,0.80
2017-11-26T16:39:33.111Z,0.80
2017-11-26T16:42:03.575Z,0.80
2017-11-26T16:44:32.352Z,0.80
2017-11-26T16:47:01.062Z,0.80
2017-11-26T16:49:29.745Z,0.80
2017-11-26T16:51:58.363Z,0.80
2017-11-26T16:54:28.041Z,0.90
2017-11-26T16:56:57.295Z,0.90
2017-11-26T16:59:26.019Z,0.80
2017-11-26T17:01:54.563Z,0.90
2017-11-26T17:04:24.118Z,0.90
2017-11-26T17:06:53.135Z,0.80
2017-11-26T17:09:22.018Z,0.90
2017-11-26T17:11:50.890Z,0.80
2017-11-26T17:14:19.525Z,0.80
2017-11-26T17:16:48.914Z,0.80
2017-11-26T17:19:17.712Z,0.80
2017-11-26T17:21:46.612Z,0.80
2017-11-26T17:24:16.139Z,0.80
2017-11-26T17:26:45.942Z,0.80
2017-11-26T17:29:14.739Z,0.80
2017-11-26T17:31:43.433Z,0.80
2017-11-26T17:34:13.051Z,0.80
2017-11-26T17:36:41.948Z,0.80
2017-11-26T17:39:10.459Z,0.80
2017-11-26T17:41:39.087Z,0.70
2017-11-26T17:44:07.780Z,0.70
2017-11-26T17:46:36.287Z,0.70
2017-11-26T17:49:04.928Z,0.60
2017-11-26T17:51:34.343Z,0.60
2017-11-26T17:54:02.793Z,0.60
2017-11-26T17:56:31.859Z,0.70
2017-11-26T17:59:00.273Z,0.70
2017-11-26T18:01:28.894Z,0.80
2017-11-26T18:03:57.848Z,0.90
2017-11-26T18:06:27.624Z,0.90
2017-11-26T18:08:56.385Z,0.90
2017-11-26T18:11:25.474Z,0.90
2017-11-26T18:13:54.611Z,0.90
2017-11-26T18:16:25.331Z,1.10
2017-11-26T18:18:54.291Z,1.10
2017-11-26T18:21:23.136Z,1.10
2017-11-26T18:23:52.946Z,1.10
2017-11-26T18:26:22.027Z,1.10
2017-11-26T18:28:51.664Z,1.00
2017-11-26T18:31:22.263Z,1.20
2017-11-26T18:33:51.244Z,1.20
2017-11-26T18:36:19.932Z,1.30
2017-11-26T18:38:48.909Z,1.20
2017-11-26T18:41:17.704Z,1.20
2017-11-26T18:43:46.298Z,1.10
2017-11-26T18:46:15.548Z,1.00
2017-11-26T18:48:44.081Z,1.00
2017-11-26T18:51:12.823Z,1.00
2017-11-26T18:53:41.836Z,1.00
2017-11-26T18:56:10.655Z,1.00
2017-11-26T18:58:39.441Z,1.00
2017-11-26T19:01:08.631Z,1.00
2017-11-26T19:03:38.482Z,1.00
2017-11-26T19:06:08.790Z,1.00
2017-11-26T19:08:38.752Z,1.10
2017-11-26T19:11:07.584Z,1.10
2017-11-26T19:13:37.902Z,1.30
2017-11-26T19:16:07.512Z,1.30
2017-11-26T19:18:37.285Z,1.30
2017-11-26T19:21:06.226Z,1.30
2017-11-26T19:23:36.410Z,1.30
2017-11-26T19:26:05.446Z,1.30
2017-11-26T19:28:35.880Z,1.30
2017-11-26T19:31:05.744Z,1.20
2017-11-26T19:33:34.968Z,1.20
2017-11-26T19:36:04.877Z,1.30
2017-11-26T19:38:34.602Z,1.20
2017-11-26T19:41:04.823Z,1.20
2017-11-26T19:43:33.796Z,1.20
2017-11-26T19:46:02.409Z,1.20
2017-11-26T19:48:31.796Z,1.10
2017-11-26T19:51:01.396Z,1.00
2017-11-26T19:53:31.905Z,1.00
2017-11-26T19:56:01.704Z,1.00
2017-11-26T19:58:32.130Z,1.00
2017-11-26T20:01:01.463Z,0.90
2017-11-26T20:03:31.613Z,0.90
2017-11-26T20:06:00.788Z,1.00
2017-11-26T20:08:29.575Z,0.90
2017-11-26T20:10:59.633Z,0.90
2017-11-26T20:13:28.450Z,0.90
2017-11-26T20:15:57.332Z,0.90
2017-11-26T20:18:29.283Z,0.80
2017-11-26T20:20:58.626Z,0.80
2017-11-26T20:23:27.787Z,0.80
2017-11-26T20:25:58.151Z,0.70
2017-11-26T20:28:27.895Z,0.70
2017-11-26T20:30:56.713Z,0.70
2017-11-26T20:33:25.615Z,0.70
2017-11-26T20:35:54.685Z,0.70
2017-11-26T20:38:23.519Z,0.70
2017-11-26T20:40:52.540Z,0.80
2017-11-26T20:43:22.112Z,0.90
2017-11-26T20:45:50.878Z,0.80
2017-11-26T20:48:20.107Z,0.90
2017-11-26T20:50:49.746Z,0.90
2017-11-26T20:53:18.932Z,1.00
2017-11-26T20:55:47.967Z,0.90
2017-11-26T20:58:16.741Z,1.00
2017-11-26T21:00:45.321Z,1.00
2017-11-26T21:03:14.831Z,1.10
2017-11-26T21:05:43.682Z,1.10
2017-11-26T21:08:14.444Z,1.10
2017-11-26T21:10:43.796Z,1.10
2017-11-26T21:13:12.682Z,1.10
2017-11-26T21:15:42.548Z,1.10
2017-11-26T21:18:11.603Z,1.10
2017-11-26T21:20:41.934Z,1.10
2017-11-26T21:23:10.769Z,1.00
2017-11-26T21:25:39.678Z,1.10
2017-11-26T21:28:08.928Z,1.00
2017-11-26T21:30:37.725Z,1.00
2017-11-26T21:33:07.311Z,1.00
2017-11-26T21:35:37.209Z,1.10
2017-11-26T21:38:06.817Z,1.10
2017-11-26T21:40:36.763Z,1.20
2017-11-26T21:43:06.723Z,1.10
2017-11-26T21:45:35.620Z,1.20
2017-11-26T21:48:06.449Z,1.20
2017-11-26T21:50:36.442Z,1.20
2017-11-26T21:53:06.845Z,1.20
2017-11-26T21:55:35.790Z,1.20
2017-11-26T21:58:04.601Z,1.30
2017-11-26T22:00:34.146Z,1.30
2017-11-26T22:03:02.906Z,1.20
2017-11-26T22:05:31.905Z,1.30
2017-11-26T22:08:01.132Z,1.30
2017-11-26T22:10:30.879Z,1.30
2017-11-26T22:12:59.854Z,1.30
2017-11-26T22:15:29.304Z,1.30
2017-11-26T22:17:58.217Z,1.30
2017-11-26T22:20:27.602Z,1.30
2017-11-26T22:22:57.431Z,1.30
2017-11-26T22:25:25.894Z,1.30
2017-11-26T22:27:54.325Z,1.30
2017-11-26T22:30:22.945Z,1.30
2017-11-26T22:32:52.155Z,1.50
2017-11-26T22:35:21.456Z,1.40
2017-11-26T22:37:50.353Z,1.40
2017-11-26T22:40:19.114Z,1.40
2017-11-26T22:42:47.885Z,1.50
2017-11-26T22:45:16.508Z,1.50
2017-11-26T22:47:44.889Z,1.50
2017-11-26T22:50:13.426Z,1.50
2017-11-26T22:52:42.023Z,1.50
2017-11-26T22:55:10.449Z,1.50
2017-11-26T22:57:39.600Z,1.40
2017-11-26T23:00:08.017Z,1.40
2017-11-26T23:02:36.386Z,1.40
2017-11-26T23:05:04.752Z,1.40
2017-11-26T23:07:33.160Z,1.40
2017-11-26T23:10:02.300Z,1.40
2017-11-26T23:12:30.693Z,1.40
2017-11-26T23:14:59.091Z,1.40
2017-11-26T23:17:27.469Z,1.40
2017-11-26T23:19:55.838Z,1.40
2017-11-26T23:22:25.046Z,1.40
2017-11-26T23:24:53.423Z,1.30
2017-11-26T23:27:21.809Z,1.30
2017-11-26T23:29:50.266Z,1.30
2017-11-26T23:32:18.656Z,1.30
2017-11-26T23:34:47.114Z,1.30
2017-11-26T23:37:15.515Z,1.20
2017-11-26T23:39:43.892Z,1.20
2017-11-26T23:42:12.380Z,1.30
2017-11-26T23:44:40.792Z,1.30
2017-11-26T23:47:09.940Z,1.20
2017-11-26T23:49:38.327Z,1.20
2017-11-26T23:52:06.726Z,1.20
2017-11-26T23:54:35.100Z,1.20
2017-11-26T23:57:03.478Z,1.20
2017-11-26T23:59:31.880Z,1.20
